createdAt,value
2023-09-19T00:00:20.415Z,22.49
2023-09-19T00:03:03.236Z,22.45
2023-09-19T00:05:35.947Z,22.43
2023-09-19T00:08:06.131Z,22.35
2023-09-19T00:10:36.207Z,22.29
2023-09-19T00:13:06.526Z,22.29
2023-09-19T00:15:41.634Z,22.26
2023-09-19T00:18:09.881Z,22.23
2023-09-19T00:20:38.786Z,22.24
2023-09-19T00:23:06.996Z,22.21
2023-09-19T00:25:33.710Z,22.19
2023-09-19T00:28:00.456Z,22.13
2023-09-19T00:30:28.198Z,22.13
2023-09-19T00:32:56.085Z,22.08
2023-09-19T00:35:26.034Z,22.14
2023-09-19T00:37:53.359Z,22.08
2023-09-19T00:40:20.647Z,22.09
2023-09-19T00:42:48.169Z,22.06
2023-09-19T00:45:17.306Z,22.02
2023-09-19T00:47:50.964Z,22.23
2023-09-19T00:50:20.183Z,22.11
2023-09-19T00:52:51.369Z,22.03
2023-09-19T00:55:21.633Z,21.97
2023-09-19T00:57:51.239Z,21.94
2023-09-19T01:00:20.628Z,21.91
2023-09-19T01:02:48.694Z,21.99
2023-09-19T01:05:15.950Z,22.05
2023-09-19T01:07:43.374Z,22.09
2023-09-19T01:10:12.965Z,22.04
2023-09-19T01:13:00.969Z,22.09
2023-09-19T01:15:56.059Z,22.06
2023-09-19T01:18:51.101Z,22.06
2023-09-19T01:21:31.832Z,21.97
2023-09-19T01:24:30.690Z,22.05
2023-09-19T01:27:00.810Z,22.09
2023-09-19T01:29:35.858Z,21.95
2023-09-19T01:32:06.001Z,21.97
2023-09-19T01:34:49.975Z,21.95
2023-09-19T01:37:21.308Z,22.03
2023-09-19T01:39:52.375Z,21.98
2023-09-19T01:42:43.498Z,22.04
2023-09-19T01:45:39.849Z,21.93
2023-09-19T01:48:14.344Z,21.97
2023-09-19T01:50:50.343Z,21.99
2023-09-19T01:53:25.021Z,22.06
2023-09-19T01:55:53.937Z,22.06
2023-09-19T01:58:40.182Z,21.90
2023-09-19T02:01:14.367Z,21.90
2023-09-19T02:03:42.288Z,21.89
2023-09-19T02:06:12.628Z,21.92
2023-09-19T02:08:40.636Z,21.92
2023-09-19T02:11:07.191Z,21.98
2023-09-19T02:13:34.683Z,21.96
2023-09-19T02:16:53.466Z,21.93
2023-09-19T02:19:22.263Z,21.91
2023-09-19T02:21:50.113Z,21.93
2023-09-19T02:24:16.840Z,21.91
2023-09-19T02:26:43.461Z,21.92
2023-09-19T02:29:13.975Z,21.93
2023-09-19T02:31:41.028Z,22.00
2023-09-19T02:34:08.129Z,21.90
2023-09-19T02:36:34.650Z,21.90
2023-09-19T02:39:01.186Z,21.94
2023-09-19T02:41:30.540Z,21.91
2023-09-19T02:43:57.961Z,21.90
2023-09-19T02:46:24.610Z,21.97
2023-09-19T02:48:51.483Z,22.04
2023-09-19T02:51:18.031Z,21.99
2023-09-19T02:53:44.596Z,21.99
2023-09-19T02:56:13.096Z,22.03
2023-09-19T02:58:39.747Z,22.03
2023-09-19T03:01:12.536Z,21.97
2023-09-19T03:03:41.094Z,21.90
2023-09-19T03:06:10.265Z,21.90
2023-09-19T03:08:37.849Z,21.94
2023-09-19T03:11:04.972Z,21.86
2023-09-19T03:13:32.322Z,21.88
2023-09-19T03:15:59.569Z,22.00
2023-09-19T03:18:27.998Z,22.00
2023-09-19T03:20:56.479Z,21.85
2023-09-19T03:23:24.093Z,21.85
2023-09-19T03:25:51.602Z,21.83
2023-09-19T03:28:19.053Z,21.70
2023-09-19T03:30:46.018Z,21.74
2023-09-19T03:33:13.343Z,21.92
2023-09-19T03:35:41.030Z,21.88
2023-09-19T03:38:07.690Z,21.67
2023-09-19T03:40:34.544Z,21.61
2023-09-19T03:43:05.549Z,21.68
2023-09-19T03:45:32.161Z,21.59
2023-09-19T03:47:59.349Z,21.68
2023-09-19T03:50:26.085Z,21.67
2023-09-19T03:52:58.589Z,21.62
2023-09-19T03:55:25.661Z,21.77
2023-09-19T03:57:52.742Z,21.79
2023-09-19T04:00:22.801Z,21.82
2023-09-19T04:02:50.051Z,21.77
2023-09-19T04:05:16.786Z,21.65
2023-09-19T04:07:43.466Z,21.63
2023-09-19T04:10:12.515Z,21.62
2023-09-19T04:12:39.508Z,21.60
2023-09-19T04:15:07.126Z,21.55
2023-09-19T04:17:36.801Z,21.59
2023-09-19T04:20:08.797Z,21.63
2023-09-19T04:22:35.573Z,21.73
2023-09-19T04:25:02.492Z,21.80
2023-09-19T04:27:29.040Z,21.78
2023-09-19T04:30:00.353Z,21.76
2023-09-19T04:32:30.602Z,21.79
2023-09-19T04:35:01.187Z,21.90
2023-09-19T04:37:27.794Z,21.98
2023-09-19T04:39:55.643Z,21.89
2023-09-19T04:42:26.313Z,21.89
2023-09-19T04:44:54.376Z,21.98
2023-09-19T04:47:22.482Z,22.01
2023-09-19T04:49:50.469Z,22.07
2023-09-19T04:52:17.308Z,22.03
2023-09-19T04:54:43.837Z,22.04
2023-09-19T04:57:10.404Z,22.05
2023-09-19T04:59:37.747Z,22.06
2023-09-19T05:02:04.869Z,22.15
2023-09-19T05:04:31.539Z,22.12
2023-09-19T05:06:58.132Z,22.16
2023-09-19T05:09:24.741Z,22.19
2023-09-19T05:11:52.540Z,22.29
2023-09-19T05:14:19.076Z,22.32
2023-09-19T05:16:45.740Z,22.43
2023-09-19T05:19:13.218Z,22.37
2023-09-19T05:21:42.654Z,22.45
2023-09-19T05:24:11.415Z,22.51
2023-09-19T05:26:38.224Z,22.48
2023-09-19T05:29:06.384Z,22.75
2023-09-19T05:31:33.148Z,22.86
2023-09-19T05:34:02.226Z,22.87
2023-09-19T05:36:31.089Z,22.94
2023-09-19T05:38:57.592Z,23.03
2023-09-19T05:41:24.792Z,23.13
2023-09-19T05:43:51.775Z,23.39
2023-09-19T05:46:18.873Z,23.41
2023-09-19T05:48:45.688Z,23.59
2023-09-19T05:51:12.328Z,23.63
2023-09-19T05:53:39.128Z,23.72
2023-09-19T05:56:06.396Z,23.65
2023-09-19T05:58:33.083Z,23.64
2023-09-19T06:01:00.422Z,23.66
2023-09-19T06:03:27.489Z,23.64
2023-09-19T06:05:58.324Z,23.80
2023-09-19T06:08:24.905Z,23.81
2023-09-19T06:10:53.448Z,23.92
2023-09-19T06:13:21.028Z,24.09
2023-09-19T06:15:48.295Z,23.82
2023-09-19T06:18:20.375Z,23.16
2023-09-19T06:20:48.760Z,23.02
2023-09-19T06:23:15.784Z,24.11
2023-09-19T06:25:43.830Z,24.96
2023-09-19T06:28:13.203Z,24.56
2023-09-19T06:30:41.429Z,23.94
2023-09-19T06:33:08.264Z,23.43
2023-09-19T06:35:35.597Z,23.08
2023-09-19T06:38:05.661Z,23.24
2023-09-19T06:40:32.612Z,23.76
2023-09-19T06:42:59.420Z,24.12
2023-09-19T06:45:28.331Z,24.34
2023-09-19T06:47:59.955Z,23.83
2023-09-19T06:50:29.318Z,23.11
2023-09-19T06:52:58.991Z,22.71
2023-09-19T06:55:29.836Z,23.16
2023-09-19T06:57:57.137Z,23.65
2023-09-19T07:00:24.522Z,23.94
2023-09-19T07:03:05.721Z,24.10
2023-09-19T07:05:34.032Z,24.20
2023-09-19T07:08:02.243Z,24.33
2023-09-19T07:10:29.788Z,24.33
2023-09-19T07:12:59.428Z,23.81
2023-09-19T07:15:32.054Z,23.24
2023-09-19T07:17:58.838Z,23.01
2023-09-19T07:20:32.807Z,23.54
2023-09-19T07:23:02.934Z,24.03
2023-09-19T07:25:31.403Z,24.40
2023-09-19T07:28:01.545Z,24.69
2023-09-19T07:30:30.322Z,24.90
2023-09-19T07:32:57.389Z,24.56
2023-09-19T07:35:24.116Z,24.13
2023-09-19T07:37:51.011Z,23.79
2023-09-19T07:40:20.566Z,23.75
2023-09-19T07:42:48.421Z,24.29
2023-09-19T07:45:15.551Z,25.04
2023-09-19T07:47:50.331Z,26.13
2023-09-19T07:50:22.277Z,27.20
2023-09-19T07:52:54.399Z,28.05
2023-09-19T07:55:24.975Z,28.78
2023-09-19T07:57:52.929Z,29.55
2023-09-19T08:00:20.066Z,29.94
2023-09-19T08:02:48.499Z,29.86
2023-09-19T08:05:18.936Z,29.91
2023-09-19T08:07:49.917Z,30.26
2023-09-19T08:10:19.005Z,30.84
2023-09-19T08:12:47.868Z,31.14
2023-09-19T08:15:16.176Z,30.80
2023-09-19T08:17:44.213Z,30.37
2023-09-19T08:20:17.470Z,30.08
2023-09-19T08:22:49.136Z,29.66
2023-09-19T08:25:19.294Z,29.25
2023-09-19T08:27:50.867Z,29.11
2023-09-19T08:30:49.748Z,29.21
2023-09-19T08:33:16.554Z,29.23
2023-09-19T08:35:43.940Z,28.94
2023-09-19T08:38:13.098Z,28.46
2023-09-19T08:40:43.683Z,27.93
2023-09-19T08:43:10.642Z,27.45
2023-09-19T08:45:38.483Z,27.05
2023-09-19T08:48:20.632Z,26.69
2023-09-19T08:51:05.086Z,26.37
2023-09-19T08:53:33.358Z,26.18
2023-09-19T08:56:03.343Z,26.04
2023-09-19T08:58:36.528Z,25.94
2023-09-19T09:01:08.078Z,25.89
2023-09-19T09:03:37.077Z,25.86
2023-09-19T09:06:04.174Z,25.79
2023-09-19T09:08:32.436Z,25.73
2023-09-19T09:11:00.447Z,25.58
2023-09-19T09:13:27.785Z,25.41
2023-09-19T09:15:55.568Z,25.22
2023-09-19T09:18:23.998Z,25.05
2023-09-19T09:20:50.797Z,24.97
2023-09-19T09:23:17.459Z,24.92
2023-09-19T09:25:58.066Z,24.87
2023-09-19T09:28:26.876Z,24.78
2023-09-19T09:30:54.076Z,24.68
2023-09-19T09:33:22.326Z,24.54
2023-09-19T09:35:58.138Z,24.40
2023-09-19T09:38:28.780Z,24.27
2023-09-19T09:41:07.309Z,24.15
2023-09-19T09:43:40.251Z,24.03
2023-09-19T09:46:20.135Z,23.89
2023-09-19T09:48:55.417Z,23.76
2023-09-19T09:51:32.058Z,23.62
2023-09-19T09:54:18.737Z,23.54
2023-09-19T09:57:17.170Z,23.46
2023-09-19T09:59:47.695Z,23.94
2023-09-19T10:02:31.064Z,24.87
2023-09-19T10:05:16.743Z,25.48
2023-09-19T10:07:50.767Z,25.31
2023-09-19T10:10:41.122Z,25.03
2023-09-19T10:13:19.264Z,24.77
2023-09-19T10:15:55.317Z,24.63
2023-09-19T10:18:24.511Z,24.53
2023-09-19T10:20:52.246Z,24.43
2023-09-19T10:23:24.925Z,24.29
2023-09-19T10:25:53.801Z,24.12
2023-09-19T10:28:23.474Z,23.96
2023-09-19T10:30:52.646Z,23.80
2023-09-19T10:33:22.116Z,23.69
2023-09-19T10:35:50.031Z,23.62
2023-09-19T10:38:23.550Z,23.54
2023-09-19T10:40:54.378Z,23.44
2023-09-19T10:43:24.927Z,23.86
2023-09-19T10:45:53.727Z,24.62
2023-09-19T10:48:26.561Z,25.07
2023-09-19T10:51:00.719Z,24.79
2023-09-19T10:53:30.763Z,24.40
2023-09-19T10:56:00.942Z,24.14
2023-09-19T10:58:39.473Z,23.96
2023-09-19T11:01:11.379Z,24.32
2023-09-19T11:03:44.297Z,24.92
2023-09-19T11:06:20.622Z,25.36
2023-09-19T11:08:59.242Z,25.69
2023-09-19T11:11:42.728Z,25.92
2023-09-19T11:14:22.101Z,25.91
2023-09-19T11:17:12.863Z,25.32
2023-09-19T11:20:16.950Z,24.78
2023-09-19T11:22:50.204Z,24.41
2023-09-19T11:25:48.222Z,24.36
2023-09-19T11:28:18.986Z,24.99
2023-09-19T11:30:47.265Z,25.45
2023-09-19T11:33:34.560Z,25.75
2023-09-19T11:36:07.625Z,25.92
2023-09-19T11:38:45.294Z,26.02
2023-09-19T11:41:21.124Z,26.11
2023-09-19T11:43:57.948Z,26.01
2023-09-19T11:46:25.649Z,25.32
2023-09-19T11:48:53.490Z,24.74
2023-09-19T11:51:27.907Z,24.50
2023-09-19T11:53:57.178Z,24.95
2023-09-19T11:56:32.629Z,25.41
2023-09-19T11:59:01.485Z,25.76
2023-09-19T12:01:34.621Z,25.99
2023-09-19T12:04:03.282Z,26.13
2023-09-19T12:06:32.939Z,26.22
2023-09-19T12:09:01.049Z,26.21
2023-09-19T12:11:35.001Z,25.70
2023-09-19T12:14:03.385Z,25.09
2023-09-19T12:16:34.688Z,24.81
2023-09-19T12:19:23.820Z,25.23
2023-09-19T12:22:06.218Z,25.74
2023-09-19T12:24:34.238Z,26.08
2023-09-19T12:27:02.681Z,26.19
2023-09-19T12:29:31.015Z,25.52
2023-09-19T12:32:04.510Z,24.80
2023-09-19T12:34:35.926Z,24.58
2023-09-19T12:37:16.641Z,25.12
2023-09-19T12:39:50.132Z,25.53
2023-09-19T12:42:19.332Z,25.73
2023-09-19T12:44:48.879Z,25.80
2023-09-19T12:47:21.480Z,25.85
2023-09-19T12:50:19.908Z,25.96
2023-09-19T12:52:51.056Z,25.98
2023-09-19T12:55:34.851Z,26.13
2023-09-19T12:58:08.333Z,26.22
2023-09-19T13:00:40.410Z,26.20
2023-09-19T13:03:29.734Z,26.18
2023-09-19T13:05:59.110Z,26.08
2023-09-19T13:08:33.898Z,25.94
2023-09-19T13:11:14.332Z,25.93
2023-09-19T13:14:02.281Z,25.81
2023-09-19T13:16:28.994Z,25.80
2023-09-19T13:18:58.728Z,25.78
2023-09-19T13:21:29.716Z,25.93
2023-09-19T13:24:16.994Z,25.85
2023-09-19T13:26:43.515Z,25.82
2023-09-19T13:29:10.090Z,25.79
2023-09-19T13:31:39.259Z,25.87
2023-09-19T13:34:05.878Z,26.00
2023-09-19T13:36:32.544Z,26.14
2023-09-19T13:38:59.421Z,26.24
2023-09-19T13:41:26.230Z,26.29
2023-09-19T13:43:53.069Z,26.27
2023-09-19T13:46:26.643Z,26.22
2023-09-19T13:48:56.017Z,25.66
2023-09-19T13:51:26.604Z,25.08
2023-09-19T13:53:53.364Z,24.78
2023-09-19T13:56:20.165Z,25.12
2023-09-19T13:58:46.960Z,25.43
2023-09-19T14:01:14.348Z,25.71
2023-09-19T14:03:42.292Z,25.90
2023-09-19T14:06:09.007Z,26.03
2023-09-19T14:08:36.466Z,26.10
2023-09-19T14:11:12.034Z,26.13
2023-09-19T14:13:38.674Z,26.18
2023-09-19T14:16:06.335Z,26.24
2023-09-19T14:18:33.600Z,26.32
2023-09-19T14:21:07.864Z,26.38
2023-09-19T14:23:38.856Z,26.13
2023-09-19T14:26:09.049Z,25.28
2023-09-19T14:28:35.762Z,24.67
2023-09-19T14:31:10.527Z,24.87
2023-09-19T14:33:37.527Z,25.15
2023-09-19T14:36:09.597Z,25.30
2023-09-19T14:38:37.735Z,25.34
2023-09-19T14:41:06.952Z,25.35
2023-09-19T14:43:34.235Z,25.38
2023-09-19T14:46:11.195Z,25.45
2023-09-19T14:48:38.550Z,25.49
2023-09-19T14:51:13.220Z,25.58
2023-09-19T14:53:40.322Z,25.65
2023-09-19T14:56:10.649Z,25.67
2023-09-19T14:58:40.774Z,25.72
2023-09-19T15:01:12.447Z,25.76
2023-09-19T15:03:42.190Z,25.71
2023-09-19T15:06:18.323Z,25.68
2023-09-19T15:08:48.964Z,25.63
2023-09-19T15:11:18.727Z,25.61
2023-09-19T15:13:46.938Z,25.58
2023-09-19T15:16:14.945Z,25.60
2023-09-19T15:18:43.544Z,25.56
2023-09-19T15:21:11.841Z,25.53
2023-09-19T15:23:40.117Z,25.46
2023-09-19T15:26:09.773Z,25.42
2023-09-19T15:28:36.691Z,25.39
2023-09-19T15:31:08.235Z,25.26
2023-09-19T15:33:37.739Z,25.28
2023-09-19T15:36:08.082Z,25.29
2023-09-19T15:39:12.749Z,25.28
2023-09-19T15:41:46.991Z,25.24
2023-09-19T15:44:20.815Z,25.22
2023-09-19T15:46:50.804Z,25.18
2023-09-19T15:49:19.470Z,25.13
2023-09-19T15:51:48.266Z,25.12
2023-09-19T15:54:19.069Z,25.10
2023-09-19T15:56:52.602Z,25.09
2023-09-19T15:59:21.785Z,25.08
2023-09-19T16:01:51.801Z,25.07
2023-09-19T16:04:20.477Z,25.03
2023-09-19T16:06:48.807Z,24.99
2023-09-19T16:09:18.823Z,24.97
2023-09-19T16:11:50.599Z,24.96
2023-09-19T16:14:20.291Z,24.94
2023-09-19T16:16:51.137Z,24.96
2023-09-19T16:19:23.159Z,24.91
2023-09-19T16:21:52.728Z,24.89
2023-09-19T16:24:22.334Z,24.86
2023-09-19T16:26:51.712Z,24.86
2023-09-19T16:29:25.609Z,24.86
2023-09-19T16:39:58.100Z,24.70
2023-09-19T16:42:25.879Z,24.66
2023-09-19T16:44:54.259Z,24.61
2023-09-19T16:47:20.807Z,24.56
2023-09-19T16:49:47.562Z,24.62
2023-09-19T16:52:14.166Z,24.65
2023-09-19T16:54:40.764Z,24.61
2023-09-19T16:57:07.296Z,24.53
2023-09-19T16:59:33.856Z,24.38
2023-09-19T17:02:00.566Z,24.26
2023-09-19T17:04:27.272Z,24.19
2023-09-19T17:06:54.300Z,24.15
2023-09-19T17:09:20.853Z,24.14
2023-09-19T17:11:47.408Z,24.07
2023-09-19T17:14:14.229Z,24.01
2023-09-19T17:16:43.049Z,23.96
2023-09-19T17:19:10.044Z,23.88
2023-09-19T17:21:36.713Z,23.82
2023-09-19T17:24:04.470Z,23.78
2023-09-19T17:26:31.584Z,23.76
2023-09-19T17:28:58.387Z,23.74
2023-09-19T17:31:27.592Z,23.70
2023-09-19T17:33:54.900Z,23.69
2023-09-19T17:36:25.753Z,23.70
2023-09-19T17:38:59.978Z,23.69
2023-09-19T17:41:27.793Z,23.64
2023-09-19T17:44:00.983Z,23.59
2023-09-19T17:46:31.086Z,23.57
2023-09-19T17:49:01.050Z,23.57
2023-09-19T17:51:28.941Z,23.56
2023-09-19T17:54:00.243Z,23.54
2023-09-19T17:56:27.313Z,23.49
2023-09-19T17:58:58.510Z,23.45
2023-09-19T18:01:29.416Z,23.46
2023-09-19T18:04:01.299Z,23.42
2023-09-19T18:06:29.581Z,23.33
2023-09-19T18:08:57.117Z,23.28
2023-09-19T18:11:27.027Z,23.27
2023-09-19T18:13:57.033Z,23.25
2023-09-19T18:16:26.143Z,23.26
2023-09-19T18:18:54.623Z,23.31
2023-09-19T18:21:22.183Z,23.28
2023-09-19T18:24:00.039Z,23.24
2023-09-19T18:26:27.394Z,23.16
2023-09-19T18:28:54.738Z,23.17
2023-09-19T18:31:22.077Z,23.23
2023-09-19T18:33:49.304Z,23.28
2023-09-19T18:36:16.409Z,23.33
2023-09-19T18:38:48.728Z,23.27
2023-09-19T18:41:16.045Z,23.18
2023-09-19T18:43:43.288Z,23.12
2023-09-19T18:46:10.430Z,23.06
2023-09-19T18:48:37.910Z,22.99
2023-09-19T18:51:11.626Z,22.95
2023-09-19T18:53:56.985Z,22.92
2023-09-19T18:56:32.825Z,22.87
2023-09-19T18:58:59.548Z,22.85
2023-09-19T19:01:26.354Z,22.81
2023-09-19T19:03:54.097Z,22.80
2023-09-19T19:06:22.825Z,22.80
2023-09-19T19:08:49.587Z,22.81
2023-09-19T19:11:18.278Z,22.84
2023-09-19T19:13:47.808Z,22.79
2023-09-19T19:16:17.195Z,22.76
2023-09-19T19:18:47.457Z,22.61
2023-09-19T19:21:16.079Z,22.49
2023-09-19T19:23:42.984Z,22.44
2023-09-19T19:26:10.768Z,22.48
2023-09-19T19:28:40.779Z,22.55
2023-09-19T19:31:11.164Z,22.53
2023-09-19T19:33:39.500Z,22.42
2023-09-19T19:36:11.525Z,22.31
2023-09-19T19:38:39.639Z,22.18
2023-09-19T19:41:09.120Z,22.09
2023-09-19T19:43:36.244Z,22.04
2023-09-19T19:46:06.012Z,22.00
2023-09-19T19:48:35.799Z,21.95
2023-09-19T19:51:11.746Z,21.90
2023-09-19T19:53:39.785Z,21.75
2023-09-19T19:56:07.786Z,21.78
2023-09-19T19:58:38.492Z,21.74
2023-09-19T20:01:10.038Z,21.70
2023-09-19T20:03:38.010Z,21.64
2023-09-19T20:06:06.982Z,21.54
2023-09-19T20:08:33.981Z,21.43
2023-09-19T20:11:08.648Z,21.35
2023-09-19T20:13:36.020Z,21.29
2023-09-19T20:16:05.299Z,21.21
2023-09-19T20:18:33.552Z,21.13
2023-09-19T20:21:11.426Z,21.05
2023-09-19T20:23:39.180Z,20.94
2023-09-19T20:26:07.716Z,20.87
2023-09-19T20:28:35.274Z,20.78
2023-09-19T20:31:10.212Z,20.71
2023-09-19T20:33:41.863Z,20.64
2023-09-19T20:36:10.647Z,20.58
2023-09-19T20:38:37.887Z,20.56
2023-09-19T20:41:11.317Z,20.51
2023-09-19T20:43:41.898Z,20.47
2023-09-19T20:46:09.092Z,20.42
2023-09-19T20:48:36.105Z,20.39
2023-09-19T20:51:10.663Z,20.31
2023-09-19T20:53:42.035Z,20.25
2023-09-19T20:56:09.149Z,20.19
2023-09-19T20:58:37.155Z,20.15
2023-09-19T21:01:05.797Z,20.07
2023-09-19T21:03:33.475Z,19.99
2023-09-19T21:06:01.806Z,19.93
2023-09-19T21:08:28.474Z,19.88
2023-09-19T21:10:55.160Z,19.81
2023-09-19T21:13:21.847Z,19.75
2023-09-19T21:15:48.415Z,19.69
2023-09-19T21:18:15.072Z,19.62
2023-09-19T21:20:41.889Z,19.53
2023-09-19T21:23:14.695Z,19.46
2023-09-19T21:25:42.318Z,19.41
2023-09-19T21:28:09.679Z,19.38
2023-09-19T21:30:37.166Z,19.33
2023-09-19T21:33:04.259Z,19.25
2023-09-19T21:35:30.937Z,19.13
2023-09-19T21:37:57.564Z,19.03
2023-09-19T21:40:25.029Z,18.92
2023-09-19T21:42:51.586Z,18.83
2023-09-19T21:45:18.173Z,18.77
2023-09-19T21:47:44.821Z,18.72
2023-09-19T21:50:11.765Z,18.67
2023-09-19T21:52:38.581Z,18.64
2023-09-19T21:55:06.045Z,18.59
2023-09-19T21:57:32.826Z,18.56
2023-09-19T21:59:59.516Z,18.53
2023-09-19T22:02:27.075Z,18.51
2023-09-19T22:04:53.775Z,18.49
2023-09-19T22:07:23.868Z,18.45
2023-09-19T22:09:50.715Z,18.43
2023-09-19T22:12:18.286Z,18.40
2023-09-19T22:14:44.869Z,18.39
2023-09-19T22:17:14.391Z,18.33
2023-09-19T22:19:45.026Z,18.27
2023-09-19T22:22:13.073Z,18.22
2023-09-19T22:24:40.530Z,18.23
2023-09-19T22:27:07.482Z,18.23
2023-09-19T22:29:34.801Z,18.25
2023-09-19T22:32:01.989Z,18.28
2023-09-19T22:34:28.652Z,18.30
2023-09-19T22:36:55.894Z,18.31
2023-09-19T22:39:26.811Z,18.30
2023-09-19T22:41:54.958Z,18.28
2023-09-19T22:44:22.698Z,18.26
2023-09-19T22:46:50.288Z,18.25
2023-09-19T22:49:18.411Z,18.24
2023-09-19T22:52:00.176Z,18.21
2023-09-19T22:54:28.085Z,18.18
2023-09-19T22:56:55.142Z,18.16
2023-09-19T22:59:22.934Z,18.12
2023-09-19T23:01:53.508Z,18.04
2023-09-19T23:04:22.312Z,17.94
2023-09-19T23:07:01.572Z,17.88
2023-09-19T23:09:29.049Z,17.81
2023-09-19T23:12:11.436Z,17.77
2023-09-19T23:14:42.831Z,17.74
2023-09-19T23:17:18.228Z,17.74
2023-09-19T23:19:49.784Z,17.74
2023-09-19T23:22:19.742Z,17.76
2023-09-19T23:24:50.934Z,17.78
2023-09-19T23:27:20.108Z,17.74
2023-09-19T23:29:47.608Z,17.67
2023-09-19T23:32:16.315Z,17.64
2023-09-19T23:34:44.266Z,17.61
2023-09-19T23:37:11.063Z,17.62
2023-09-19T23:39:41.690Z,17.64
2023-09-19T23:42:13.684Z,17.61
2023-09-19T23:44:44.051Z,17.56
2023-09-19T23:47:12.085Z,17.51
2023-09-19T23:49:40.509Z,17.49
2023-09-19T23:52:07.274Z,17.49
2023-09-19T23:54:36.202Z,17.48
2023-09-19T23:57:07.539Z,17.46
2023-09-19T23:59:34.526Z,17.45
